Time;durP1;ratioP1;P1;durP2;ratioP2;P2;SDS_P1;SDS_P2;PMS_P1;PMS_P2;Temp;Humidity;BMP_temperature;BMP_pressure;BME280_temperature;BME280_humidity;BME280_pressure;Samples;Min_cycle;Max_cycle;Signal;HPM_P1;HPM_P2
2023/12/31 04:20:22;;;;;;;0.85;0.57;;;;;;;8.69;39.92;94094.09;6184394;23;20021;-88
2023/12/31 04:22:50;;;;;;;0.60;0.50;;;;;;;8.37;38.95;94070.38;6129791;23;20013;-88
2023/12/31 04:25:15;;;;;;;0.80;0.60;;;;;;;8.46;39.81;94061.50;6105514;23;20014;-88
2023/12/31 06:51:39;;;;;;;4.43;2.70;;;;;;;8.26;48.12;94211.59;6191329;23;20087;-89
2023/12/31 06:54:05;;;;;;;4.93;2.40;;;;;;;8.16;47.93;94198.19;6187463;23;20024;-89
2023/12/31 06:56:30;;;;;;;3.95;2.60;;;;;;;8.03;48.33;94201.47;6166572;23;20059;-87
2023/12/31 06:58:56;;;;;;;3.15;2.50;;;;;;;7.82;49.27;94205.69;6190710;23;20087;-88
2023/12/31 07:58:13;;;;;;;3.72;2.67;;;;;;;8.29;48.12;94224.19;6213442;23;20029;-88
2023/12/31 08:00:38;;;;;;;3.60;2.72;;;;;;;8.38;48.39;94230.06;6188072;23;20079;-87
2023/12/31 08:23:45;;;;;;;2.88;2.20;;;;;;;9.06;45.16;94177.59;6200203;23;20016;-85
2023/12/31 08:26:10;;;;;;;5.13;3.42;;;;;;;9.25;45.10;94192.44;6187262;23;20020;-86
2023/12/31 08:28:36;;;;;;;3.80;2.83;;;;;;;9.24;45.48;94195.25;6162936;23;20015;-86
2023/12/31 08:31:04;;;;;;;4.10;2.97;;;;;;;9.18;46.34;94195.03;6187983;23;20007;-86
2023/12/31 08:33:30;;;;;;;3.38;2.53;;;;;;;9.19;46.23;94193.22;6187384;23;20080;-86
2023/12/31 08:35:55;;;;;;;3.15;2.45;;;;;;;9.49;44.93;94172.97;6186290;23;20035;-87
2023/12/31 10:01:03;;;;;;;2.25;1.90;;;;;;;14.67;38.07;94070.94;6205930;23;20017;-86
2023/12/31 10:03:33;;;;;;;4.72;3.20;;;;;;;14.71;38.95;94066.03;6210268;23;20023;-86
2023/12/31 10:05:59;;;;;;;3.72;2.85;;;;;;;14.58;37.20;94062.66;6161515;23;20013;-85
2023/12/31 10:18:26;;;;;;;2.20;1.92;;;;;;;15.40;36.53;94039.81;6201828;22;20031;-84
2023/12/31 10:20:52;;;;;;;2.55;1.95;;;;;;;14.68;37.23;94035.91;6185464;23;20008;-85
2023/12/31 10:23:17;;;;;;;2.85;2.30;;;;;;;14.73;37.08;94028.13;6161214;23;20019;-85
2023/12/31 10:25:43;;;;;;;2.28;1.80;;;;;;;14.75;36.47;94020.03;6160938;23;20088;-86
2023/12/31 10:28:09;;;;;;;3.00;1.90;;;;;;;14.54;36.92;94013.59;6185357;23;20008;-87
2023/12/31 14:49:41;;;;;;;0.40;0.20;;;;;;;9.23;57.48;94264.47;6211613;23;20099;-86
2023/12/31 14:57:10;;;;;;;0.80;0.30;;;;;;;9.24;57.24;94271.28;6183793;23;20032;-85
2023/12/31 14:59:35;;;;;;;0.98;0.40;;;;;;;8.96;58.59;94266.94;6159099;23;20013;-86
2023/12/31 15:02:01;;;;;;;0.35;0.30;;;;;;;9.02;58.61;94274.97;6182829;23;20063;-86
2023/12/31 15:17:12;;;;;;;0.47;0.30;;;;;;;8.85;57.85;94295.19;6184174;22;20025;-86
2023/12/31 15:19:40;;;;;;;0.40;0.30;;;;;;;8.96;57.82;94300.66;6134004;23;20016;-86
2023/12/31 15:22:08;;;;;;;0.57;0.43;;;;;;;8.96;58.31;94307.63;6159126;23;20028;-85
2023/12/31 15:24:33;;;;;;;1.60;0.50;;;;;;;9.08;57.68;94298.34;6133942;23;20013;-85
2023/12/31 15:26:59;;;;;;;0.55;0.40;;;;;;;8.96;57.59;94311.03;6158609;23;20210;-86
2023/12/31 15:29:25;;;;;;;0.73;0.50;;;;;;;8.77;58.67;94307.31;6158556;23;20454;-86
2023/12/31 15:31:50;;;;;;;0.40;0.40;;;;;;;8.67;58.41;94308.63;6133384;23;20095;-86
2023/12/31 15:34:16;;;;;;;0.68;0.50;;;;;;;8.70;58.08;94308.25;6157798;23;20001;-86
2023/12/31 15:36:41;;;;;;;0.75;0.50;;;;;;;8.59;58.30;94320.75;6158427;23;20001;-85
2023/12/31 15:39:14;;;;;;;6.40;3.60;;;;;;;8.52;58.84;94335.44;6132691;23;20013;-86
2023/12/31 16:02:18;;;;;;;0.90;0.80;;;;;;;7.96;58.60;94346.44;6211627;23;20043;-86
2023/12/31 16:04:45;;;;;;;0.75;0.75;;;;;;;7.88;58.38;94348.31;6186732;23;20035;-86
2023/12/31 16:07:11;;;;;;;1.15;0.90;;;;;;;7.71;58.63;94356.31;6162545;23;20497;-85
2023/12/31 16:09:38;;;;;;;0.60;0.60;;;;;;;7.60;58.54;94357.56;6186815;23;20005;-86
2023/12/31 16:12:04;;;;;;;0.70;0.68;;;;;;;7.19;59.56;94344.28;6137955;23;20047;-86
2023/12/31 16:14:29;;;;;;;0.80;0.70;;;;;;;7.34;58.86;94341.69;6187127;23;20009;-86
2023/12/31 16:58:03;;;;;;;4.13;3.40;;;;;;;6.92;60.11;94341.31;6185070;23;20071;-86
2023/12/31 17:00:31;;;;;;;3.20;2.80;;;;;;;7.00;59.73;94343.78;6162925;23;20031;-86
2023/12/31 17:02:57;;;;;;;4.00;3.70;;;;;;;6.91;60.20;94346.66;6162953;23;20004;-87
2023/12/31 17:51:49;;;;;;;0.60;0.60;;;;;;;7.04;60.41;94339.91;6212995;23;20043;-85
2023/12/31 17:54:14;;;;;;;0.40;0.30;;;;;;;6.98;60.56;94342.38;6187493;23;20065;-86
2023/12/31 17:56:40;;;;;;;1.05;0.50;;;;;;;6.89;60.55;94333.09;6186782;23;20087;-86
2023/12/31 20:05:31;;;;;;;3.95;2.92;;;;;;;7.17;61.82;94297.09;6182101;23;20025;-86
2023/12/31 20:07:57;;;;;;;3.58;2.85;;;;;;;7.20;62.33;94302.72;6080829;23;20088;-86
2023/12/31 20:10:24;;;;;;;4.63;2.80;;;;;;;7.40;61.44;94309.91;6128801;23;20009;-86
2023/12/31 20:12:51;;;;;;;3.45;2.58;;;;;;;7.41;61.37;94307.16;6104304;23;20016;-85
2023/12/31 20:15:17;;;;;;;3.83;2.83;;;;;;;7.53;60.63;94319.63;6105250;23;20001;-86
2023/12/31 20:17:46;;;;;;;3.78;2.80;;;;;;;7.49;60.62;94315.81;6128433;23;20010;-86
2023/12/31 20:20:11;;;;;;;4.80;2.88;;;;;;;7.30;61.16;94319.75;6127682;23;20113;-86
2023/12/31 21:33:30;;;;;;;3.45;2.65;;;;;;;6.77;61.96;94377.44;6173001;23;20020;-87
2023/12/31 22:09:29;;;;;;;6.15;4.07;;;;;;;6.93;61.10;94368.78;6158866;23;20021;-87
2023/12/31 22:11:54;;;;;;;6.00;3.88;;;;;;;6.97;61.08;94375.19;6131981;23;20071;-86
2023/12/31 22:14:20;;;;;;;25.90;19.25;;;;;;;7.08;61.17;94376.53;6155691;23;20005;-86
2023/12/31 22:16:45;;;;;;;6.20;4.10;;;;;;;7.11;61.21;94391.69;6130433;23;20013;-86
2023/12/31 22:21:39;;;;;;;12.43;7.90;;;;;;;7.07;61.06;94374.94;6209590;23;20047;-87
2023/12/31 22:24:04;;;;;;;9.25;5.82;;;;;;;7.09;61.27;94383.31;6160410;23;20043;-87
2023/12/31 22:26:30;;;;;;;8.07;4.90;;;;;;;6.93;61.96;94401.56;6159417;23;20013;-86
2023/12/31 23:01:32;;;;;;;20.08;11.48;;;;;;;6.57;62.74;94408.16;6184327;23;20025;-86
2023/12/31 23:03:58;;;;;;;14.90;8.52;;;;;;;6.44;63.10;94403.53;6187959;23;20025;-85
2023/12/31 23:06:23;;;;;;;12.52;7.57;;;;;;;6.59;62.89;94408.78;6162625;23;20114;-86
2023/12/31 23:08:52;;;;;;;10.75;6.53;;;;;;;6.64;62.68;94419.41;6188311;23;20013;-87
2023/12/31 23:11:18;;;;;;;13.65;7.22;;;;;;;6.24;64.34;94428.19;6140693;23;20013;-87
2023/12/31 23:51:28;;;;;;;31.88;17.75;;;;;;;5.94;64.23;94434.94;6183331;23;20029;-86
2023/12/31 23:53:54;;;;;;;22.67;13.40;;;;;;;6.01;63.62;94443.66;6157349;23;20067;-86
2023/12/31 23:56:19;;;;;;;18.42;10.18;;;;;;;6.19;63.47;94446.00;6133863;23;20062;-86
2023/12/31 23:58:49;;;;;;;16.83;9.60;;;;;;;6.22;63.09;94432.75;6133303;23;20008;-86
